sensor_id;sensor_type;location;lat;lon;timestamp;temperature;humidity
12426;DHT22;6277;49.824;9.562;2024-03-02T00:01:07;7.90;70.00
12426;DHT22;6277;49.824;9.562;2024-03-02T00:03:32;7.90;70.10
12426;DHT22;6277;49.824;9.562;2024-03-02T00:05:59;8.00;70.20
12426;DHT22;6277;49.824;9.562;2024-03-02T00:08:25;8.00;70.20
12426;DHT22;6277;49.824;9.562;2024-03-02T00:11:01;8.00;70.20
12426;DHT22;6277;49.824;9.562;2024-03-02T00:13:29;8.00;70.40
12426;DHT22;6277;49.824;9.562;2024-03-02T00:15:57;8.00;70.20
12426;DHT22;6277;49.824;9.562;2024-03-02T00:18:30;8.00;70.20
12426;DHT22;6277;49.824;9.562;2024-03-02T00:20:56;8.00;70.30
12426;DHT22;6277;49.824;9.562;2024-03-02T00:23:22;8.10;70.80
12426;DHT22;6277;49.824;9.562;2024-03-02T00:25:53;8.10;70.20
12426;DHT22;6277;49.824;9.562;2024-03-02T00:28:29;8.20;70.30
12426;DHT22;6277;49.824;9.562;2024-03-02T00:33:43;8.10;70.30
12426;DHT22;6277;49.824;9.562;2024-03-02T00:36:10;8.10;70.40
12426;DHT22;6277;49.824;9.562;2024-03-02T00:38:48;8.10;70.20
12426;DHT22;6277;49.824;9.562;2024-03-02T00:41:29;8.10;70.50
12426;DHT22;6277;49.824;9.562;2024-03-02T00:43:58;8.10;70.60
12426;DHT22;6277;49.824;9.562;2024-03-02T00:46:24;8.10;70.40
12426;DHT22;6277;49.824;9.562;2024-03-02T00:48:54;8.20;70.50
12426;DHT22;6277;49.824;9.562;2024-03-02T00:51:22;8.10;70.60
12426;DHT22;6277;49.824;9.562;2024-03-02T00:53:48;8.20;70.50
12426;DHT22;6277;49.824;9.562;2024-03-02T00:56:14;8.20;70.60
12426;DHT22;6277;49.824;9.562;2024-03-02T00:58:40;8.20;70.70
12426;DHT22;6277;49.824;9.562;2024-03-02T01:01:06;8.20;70.80
12426;DHT22;6277;49.824;9.562;2024-03-02T01:03:33;8.20;70.70
12426;DHT22;6277;49.824;9.562;2024-03-02T01:05:59;8.30;70.80
12426;DHT22;6277;49.824;9.562;2024-03-02T01:08:24;8.30;70.70
12426;DHT22;6277;49.824;9.562;2024-03-02T01:10:51;8.30;70.60
12426;DHT22;6277;49.824;9.562;2024-03-02T01:13:16;8.30;70.50
12426;DHT22;6277;49.824;9.562;2024-03-02T01:15:42;8.30;70.50
12426;DHT22;6277;49.824;9.562;2024-03-02T01:18:07;8.30;70.40
12426;DHT22;6277;49.824;9.562;2024-03-02T01:20:34;8.30;70.30
12426;DHT22;6277;49.824;9.562;2024-03-02T01:22:59;8.30;70.30
12426;DHT22;6277;49.824;9.562;2024-03-02T01:25:25;8.30;70.30
12426;DHT22;6277;49.824;9.562;2024-03-02T01:27:50;8.30;70.20
12426;DHT22;6277;49.824;9.562;2024-03-02T01:30:16;8.30;70.30
12426;DHT22;6277;49.824;9.562;2024-03-02T01:32:42;8.30;70.30
12426;DHT22;6277;49.824;9.562;2024-03-02T01:35:08;8.20;70.20
12426;DHT22;6277;49.824;9.562;2024-03-02T01:37:34;8.30;70.20
12426;DHT22;6277;49.824;9.562;2024-03-02T01:40:00;8.20;70.10
12426;DHT22;6277;49.824;9.562;2024-03-02T01:42:25;8.20;70.10
12426;DHT22;6277;49.824;9.562;2024-03-02T01:44:51;8.20;70.00
12426;DHT22;6277;49.824;9.562;2024-03-02T01:47:17;8.10;70.00
12426;DHT22;6277;49.824;9.562;2024-03-02T01:49:43;8.00;70.00
12426;DHT22;6277;49.824;9.562;2024-03-02T01:52:08;8.00;70.20
12426;DHT22;6277;49.824;9.562;2024-03-02T01:54:34;8.00;70.20
12426;DHT22;6277;49.824;9.562;2024-03-02T01:57:00;7.90;70.20
12426;DHT22;6277;49.824;9.562;2024-03-02T01:59:25;7.90;70.30
12426;DHT22;6277;49.824;9.562;2024-03-02T02:01:51;7.90;70.20
12426;DHT22;6277;49.824;9.562;2024-03-02T02:04:17;7.80;70.10
12426;DHT22;6277;49.824;9.562;2024-03-02T02:06:44;7.80;70.10
12426;DHT22;6277;49.824;9.562;2024-03-02T02:09:10;7.70;70.10
12426;DHT22;6277;49.824;9.562;2024-03-02T02:11:35;7.70;70.10
12426;DHT22;6277;49.824;9.562;2024-03-02T02:14:01;7.70;70.10
12426;DHT22;6277;49.824;9.562;2024-03-02T02:16:26;7.60;70.20
12426;DHT22;6277;49.824;9.562;2024-03-02T02:18:52;7.60;70.20
12426;DHT22;6277;49.824;9.562;2024-03-02T02:21:17;7.60;70.20
12426;DHT22;6277;49.824;9.562;2024-03-02T02:23:43;7.50;70.10
12426;DHT22;6277;49.824;9.562;2024-03-02T02:26:12;7.40;70.00
12426;DHT22;6277;49.824;9.562;2024-03-02T02:28:37;7.40;70.00
12426;DHT22;6277;49.824;9.562;2024-03-02T02:31:03;7.30;70.60
12426;DHT22;6277;49.824;9.562;2024-03-02T02:33:29;7.30;70.00
12426;DHT22;6277;49.824;9.562;2024-03-02T02:35:54;7.20;70.60
12426;DHT22;6277;49.824;9.562;2024-03-02T02:38:20;7.20;69.90
12426;DHT22;6277;49.824;9.562;2024-03-02T02:40:46;7.10;69.80
12426;DHT22;6277;49.824;9.562;2024-03-02T02:43:11;7.00;69.80
12426;DHT22;6277;49.824;9.562;2024-03-02T02:45:37;7.00;70.00
12426;DHT22;6277;49.824;9.562;2024-03-02T02:48:02;6.90;70.00
12426;DHT22;6277;49.824;9.562;2024-03-02T02:50:28;6.90;70.10
12426;DHT22;6277;49.824;9.562;2024-03-02T02:52:54;6.80;70.10
12426;DHT22;6277;49.824;9.562;2024-03-02T02:55:19;6.70;70.00
12426;DHT22;6277;49.824;9.562;2024-03-02T02:57:45;6.70;70.10
12426;DHT22;6277;49.824;9.562;2024-03-02T03:00:13;6.60;70.20
12426;DHT22;6277;49.824;9.562;2024-03-02T03:02:45;6.50;70.30
12426;DHT22;6277;49.824;9.562;2024-03-02T03:05:12;6.50;70.50
12426;DHT22;6277;49.824;9.562;2024-03-02T03:07:41;6.50;70.80
12426;DHT22;6277;49.824;9.562;2024-03-02T03:10:08;6.40;70.90
12426;DHT22;6277;49.824;9.562;2024-03-02T03:12:36;6.40;70.80
12426;DHT22;6277;49.824;9.562;2024-03-02T03:15:03;6.30;70.80
12426;DHT22;6277;49.824;9.562;2024-03-02T03:17:29;6.30;70.80
12426;DHT22;6277;49.824;9.562;2024-03-02T03:19:55;6.30;70.90
12426;DHT22;6277;49.824;9.562;2024-03-02T03:22:21;6.30;71.00
12426;DHT22;6277;49.824;9.562;2024-03-02T03:24:46;6.30;71.10
12426;DHT22;6277;49.824;9.562;2024-03-02T03:27:12;6.20;71.00
12426;DHT22;6277;49.824;9.562;2024-03-02T03:29:37;6.20;71.00
12426;DHT22;6277;49.824;9.562;2024-03-02T03:32:03;6.20;70.90
12426;DHT22;6277;49.824;9.562;2024-03-02T03:34:32;6.20;70.80
12426;DHT22;6277;49.824;9.562;2024-03-02T03:36:58;6.20;70.90
12426;DHT22;6277;49.824;9.562;2024-03-02T03:39:23;6.10;70.70
12426;DHT22;6277;49.824;9.562;2024-03-02T03:41:49;6.10;70.70
12426;DHT22;6277;49.824;9.562;2024-03-02T03:44:14;6.10;70.70
12426;DHT22;6277;49.824;9.562;2024-03-02T03:46:40;6.00;70.70
12426;DHT22;6277;49.824;9.562;2024-03-02T03:49:05;6.00;70.70
12426;DHT22;6277;49.824;9.562;2024-03-02T03:51:31;6.00;70.60
12426;DHT22;6277;49.824;9.562;2024-03-02T03:53:56;5.90;71.30
12426;DHT22;6277;49.824;9.562;2024-03-02T03:56:22;5.90;70.80
12426;DHT22;6277;49.824;9.562;2024-03-02T03:58:47;5.80;70.90
12426;DHT22;6277;49.824;9.562;2024-03-02T04:01:13;5.80;71.00
12426;DHT22;6277;49.824;9.562;2024-03-02T04:03:39;5.80;71.20
12426;DHT22;6277;49.824;9.562;2024-03-02T04:06:04;5.80;71.20
12426;DHT22;6277;49.824;9.562;2024-03-02T04:08:30;5.80;71.20
12426;DHT22;6277;49.824;9.562;2024-03-02T04:10:55;5.70;71.10
12426;DHT22;6277;49.824;9.562;2024-03-02T04:13:21;5.70;71.10
12426;DHT22;6277;49.824;9.562;2024-03-02T04:15:47;5.70;71.10
12426;DHT22;6277;49.824;9.562;2024-03-02T04:18:12;5.70;71.10
12426;DHT22;6277;49.824;9.562;2024-03-02T04:20:38;5.60;71.10
12426;DHT22;6277;49.824;9.562;2024-03-02T04:23:04;5.60;71.20
12426;DHT22;6277;49.824;9.562;2024-03-02T04:25:29;5.60;71.20
12426;DHT22;6277;49.824;9.562;2024-03-02T04:27:55;5.60;71.20
12426;DHT22;6277;49.824;9.562;2024-03-02T04:30:20;5.60;71.30
12426;DHT22;6277;49.824;9.562;2024-03-02T04:32:46;5.60;71.40
12426;DHT22;6277;49.824;9.562;2024-03-02T04:35:12;5.60;71.60
12426;DHT22;6277;49.824;9.562;2024-03-02T04:37:40;5.70;71.70
12426;DHT22;6277;49.824;9.562;2024-03-02T04:40:06;5.70;71.80
12426;DHT22;6277;49.824;9.562;2024-03-02T04:42:34;5.70;71.80
12426;DHT22;6277;49.824;9.562;2024-03-02T04:44:59;5.70;71.80
12426;DHT22;6277;49.824;9.562;2024-03-02T04:47:25;5.80;71.80
12426;DHT22;6277;49.824;9.562;2024-03-02T04:49:50;5.80;71.90
12426;DHT22;6277;49.824;9.562;2024-03-02T04:52:16;5.80;72.00
12426;DHT22;6277;49.824;9.562;2024-03-02T04:54:42;5.80;72.10
12426;DHT22;6277;49.824;9.562;2024-03-02T04:57:27;5.90;72.20
12426;DHT22;6277;49.824;9.562;2024-03-02T04:59:53;5.90;72.20
12426;DHT22;6277;49.824;9.562;2024-03-02T05:02:18;5.90;72.20
12426;DHT22;6277;49.824;9.562;2024-03-02T05:04:44;6.00;72.30
12426;DHT22;6277;49.824;9.562;2024-03-02T05:07:09;6.00;72.30
12426;DHT22;6277;49.824;9.562;2024-03-02T05:09:35;6.10;72.40
12426;DHT22;6277;49.824;9.562;2024-03-02T05:12:01;6.10;72.50
12426;DHT22;6277;49.824;9.562;2024-03-02T05:14:46;6.20;72.50
12426;DHT22;6277;49.824;9.562;2024-03-02T05:17:11;6.30;72.60
12426;DHT22;6277;49.824;9.562;2024-03-02T05:19:37;6.30;72.50
12426;DHT22;6277;49.824;9.562;2024-03-02T05:22:03;6.30;72.50
12426;DHT22;6277;49.824;9.562;2024-03-02T05:24:29;6.30;72.40
12426;DHT22;6277;49.824;9.562;2024-03-02T05:26:54;6.40;72.40
12426;DHT22;6277;49.824;9.562;2024-03-02T05:29:20;6.40;72.30
12426;DHT22;6277;49.824;9.562;2024-03-02T05:31:46;6.40;72.30
12426;DHT22;6277;49.824;9.562;2024-03-02T05:34:11;6.40;72.20
12426;DHT22;6277;49.824;9.562;2024-03-02T05:36:37;6.40;72.20
12426;DHT22;6277;49.824;9.562;2024-03-02T05:39:04;6.50;72.20
12426;DHT22;6277;49.824;9.562;2024-03-02T05:41:31;6.50;72.20
12426;DHT22;6277;49.824;9.562;2024-03-02T05:43:57;6.50;72.10
12426;DHT22;6277;49.824;9.562;2024-03-02T05:46:22;6.50;72.20
12426;DHT22;6277;49.824;9.562;2024-03-02T05:48:48;6.50;72.20
12426;DHT22;6277;49.824;9.562;2024-03-02T05:51:13;6.50;72.20
12426;DHT22;6277;49.824;9.562;2024-03-02T05:53:39;6.50;72.20
12426;DHT22;6277;49.824;9.562;2024-03-02T05:56:05;6.50;72.20
12426;DHT22;6277;49.824;9.562;2024-03-02T05:58:31;6.60;72.20
12426;DHT22;6277;49.824;9.562;2024-03-02T06:01:13;6.60;72.20
12426;DHT22;6277;49.824;9.562;2024-03-02T06:03:38;6.60;72.10
12426;DHT22;6277;49.824;9.562;2024-03-02T06:06:04;6.50;72.10
12426;DHT22;6277;49.824;9.562;2024-03-02T06:08:30;6.60;72.10
12426;DHT22;6277;49.824;9.562;2024-03-02T06:10:56;6.50;72.10
12426;DHT22;6277;49.824;9.562;2024-03-02T06:13:22;6.50;72.20
12426;DHT22;6277;49.824;9.562;2024-03-02T06:15:47;6.50;72.20
12426;DHT22;6277;49.824;9.562;2024-03-02T06:18:12;6.50;72.30
12426;DHT22;6277;49.824;9.562;2024-03-02T06:20:38;6.50;72.50
12426;DHT22;6277;49.824;9.562;2024-03-02T06:23:04;6.50;72.60
12426;DHT22;6277;49.824;9.562;2024-03-02T06:25:29;6.50;72.60
12426;DHT22;6277;49.824;9.562;2024-03-02T06:27:55;6.50;72.70
12426;DHT22;6277;49.824;9.562;2024-03-02T06:30:21;6.50;72.80
12426;DHT22;6277;49.824;9.562;2024-03-02T06:32:46;6.50;72.90
12426;DHT22;6277;49.824;9.562;2024-03-02T06:35:12;6.50;72.80
12426;DHT22;6277;49.824;9.562;2024-03-02T06:37:38;6.60;73.50
12426;DHT22;6277;49.824;9.562;2024-03-02T06:40:06;6.60;72.90
12426;DHT22;6277;49.824;9.562;2024-03-02T06:42:33;6.60;72.80
12426;DHT22;6277;49.824;9.562;2024-03-02T06:44:59;6.70;72.80
12426;DHT22;6277;49.824;9.562;2024-03-02T06:47:25;6.70;72.90
12426;DHT22;6277;49.824;9.562;2024-03-02T06:49:50;6.70;72.90
12426;DHT22;6277;49.824;9.562;2024-03-02T06:52:16;6.80;73.00
12426;DHT22;6277;49.824;9.562;2024-03-02T06:54:42;6.80;72.90
12426;DHT22;6277;49.824;9.562;2024-03-02T06:57:07;6.90;73.00
12426;DHT22;6277;49.824;9.562;2024-03-02T06:59:33;7.00;73.10
12426;DHT22;6277;49.824;9.562;2024-03-02T07:01:59;7.00;73.10
12426;DHT22;6277;49.824;9.562;2024-03-02T07:04:24;7.10;73.20
12426;DHT22;6277;49.824;9.562;2024-03-02T07:06:50;7.10;73.10
12426;DHT22;6277;49.824;9.562;2024-03-02T07:09:16;7.20;73.10
12426;DHT22;6277;49.824;9.562;2024-03-02T07:11:42;7.20;73.10
12426;DHT22;6277;49.824;9.562;2024-03-02T07:14:07;7.30;73.20
12426;DHT22;6277;49.824;9.562;2024-03-02T07:16:33;7.40;73.20
12426;DHT22;6277;49.824;9.562;2024-03-02T07:19:00;7.40;73.10
12426;DHT22;6277;49.824;9.562;2024-03-02T07:21:27;7.50;73.10
12426;DHT22;6277;49.824;9.562;2024-03-02T07:23:53;7.60;73.10
12426;DHT22;6277;49.824;9.562;2024-03-02T07:26:19;7.60;73.00
12426;DHT22;6277;49.824;9.562;2024-03-02T07:28:48;7.70;73.60
12426;DHT22;6277;49.824;9.562;2024-03-02T07:31:14;7.70;73.00
12426;DHT22;6277;49.824;9.562;2024-03-02T07:33:40;7.80;72.90
12426;DHT22;6277;49.824;9.562;2024-03-02T07:36:07;7.80;72.80
12426;DHT22;6277;49.824;9.562;2024-03-02T07:38:33;7.80;72.70
12426;DHT22;6277;49.824;9.562;2024-03-02T07:41:00;7.90;72.80
12426;DHT22;6277;49.824;9.562;2024-03-02T07:43:26;7.90;72.80
12426;DHT22;6277;49.824;9.562;2024-03-02T07:45:51;7.90;72.80
12426;DHT22;6277;49.824;9.562;2024-03-02T07:48:17;7.90;72.80
12426;DHT22;6277;49.824;9.562;2024-03-02T07:50:43;8.00;72.90
12426;DHT22;6277;49.824;9.562;2024-03-02T07:53:08;8.00;72.90
12426;DHT22;6277;49.824;9.562;2024-03-02T07:55:34;8.00;72.90
12426;DHT22;6277;49.824;9.562;2024-03-02T07:58:03;8.10;73.00
12426;DHT22;6277;49.824;9.562;2024-03-02T08:00:28;8.10;72.90
12426;DHT22;6277;49.824;9.562;2024-03-02T08:02:54;8.20;72.90
12426;DHT22;6277;49.824;9.562;2024-03-02T08:05:20;8.20;73.00
12426;DHT22;6277;49.824;9.562;2024-03-02T08:07:46;8.30;73.10
12426;DHT22;6277;49.824;9.562;2024-03-02T08:10:13;8.30;73.10
12426;DHT22;6277;49.824;9.562;2024-03-02T08:12:38;8.40;73.20
12426;DHT22;6277;49.824;9.562;2024-03-02T08:15:04;8.50;73.20
12426;DHT22;6277;49.824;9.562;2024-03-02T08:17:30;8.60;73.30
12426;DHT22;6277;49.824;9.562;2024-03-02T08:19:56;8.70;73.30
12426;DHT22;6277;49.824;9.562;2024-03-02T08:22:22;8.70;73.30
12426;DHT22;6277;49.824;9.562;2024-03-02T08:24:48;8.80;73.40
12426;DHT22;6277;49.824;9.562;2024-03-02T08:27:14;8.90;73.40
12426;DHT22;6277;49.824;9.562;2024-03-02T08:29:40;9.00;73.40
12426;DHT22;6277;49.824;9.562;2024-03-02T08:32:06;9.10;73.40
12426;DHT22;6277;49.824;9.562;2024-03-02T08:34:32;9.10;73.40
12426;DHT22;6277;49.824;9.562;2024-03-02T08:36:59;9.20;73.40
12426;DHT22;6277;49.824;9.562;2024-03-02T08:39:24;9.30;73.40
12426;DHT22;6277;49.824;9.562;2024-03-02T08:41:50;9.30;73.30
12426;DHT22;6277;49.824;9.562;2024-03-02T08:44:16;9.40;73.30
12426;DHT22;6277;49.824;9.562;2024-03-02T08:46:42;9.40;73.20
12426;DHT22;6277;49.824;9.562;2024-03-02T08:49:09;9.50;73.20
12426;DHT22;6277;49.824;9.562;2024-03-02T08:51:34;9.50;73.20
12426;DHT22;6277;49.824;9.562;2024-03-02T08:54:00;9.60;73.10
12426;DHT22;6277;49.824;9.562;2024-03-02T08:56:25;9.50;72.90
12426;DHT22;6277;49.824;9.562;2024-03-02T08:58:51;9.60;73.00
12426;DHT22;6277;49.824;9.562;2024-03-02T09:01:18;9.60;73.00
12426;DHT22;6277;49.824;9.562;2024-03-02T09:03:44;9.60;73.00
12426;DHT22;6277;49.824;9.562;2024-03-02T09:06:11;9.60;73.00
12426;DHT22;6277;49.824;9.562;2024-03-02T09:08:36;9.70;73.20
12426;DHT22;6277;49.824;9.562;2024-03-02T09:11:04;9.80;73.30
12426;DHT22;6277;49.824;9.562;2024-03-02T09:13:30;9.80;73.40
12426;DHT22;6277;49.824;9.562;2024-03-02T09:15:55;9.90;73.50
12426;DHT22;6277;49.824;9.562;2024-03-02T09:18:21;10.00;73.60
12426;DHT22;6277;49.824;9.562;2024-03-02T09:20:46;10.00;73.50
12426;DHT22;6277;49.824;9.562;2024-03-02T09:23:12;10.10;73.50
12426;DHT22;6277;49.824;9.562;2024-03-02T09:25:37;10.20;73.50
12426;DHT22;6277;49.824;9.562;2024-03-02T09:28:03;10.30;73.60
12426;DHT22;6277;49.824;9.562;2024-03-02T09:30:29;10.40;73.80
12426;DHT22;6277;49.824;9.562;2024-03-02T09:32:54;10.50;73.80
12426;DHT22;6277;49.824;9.562;2024-03-02T09:35:20;10.50;73.70
12426;DHT22;6277;49.824;9.562;2024-03-02T09:37:45;10.70;73.80
12426;DHT22;6277;49.824;9.562;2024-03-02T09:40:12;10.80;73.80
12426;DHT22;6277;49.824;9.562;2024-03-02T09:42:38;10.90;73.70
12426;DHT22;6277;49.824;9.562;2024-03-02T09:45:05;11.00;73.60
12426;DHT22;6277;49.824;9.562;2024-03-02T09:47:30;11.10;74.20
12426;DHT22;6277;49.824;9.562;2024-03-02T09:49:56;11.10;73.40
12426;DHT22;6277;49.824;9.562;2024-03-02T09:52:22;11.20;73.30
12426;DHT22;6277;49.824;9.562;2024-03-02T09:54:49;11.20;73.00
12426;DHT22;6277;49.824;9.562;2024-03-02T09:57:15;11.30;73.00
12426;DHT22;6277;49.824;9.562;2024-03-02T09:59:40;11.40;72.90
12426;DHT22;6277;49.824;9.562;2024-03-02T10:02:06;11.40;72.70
12426;DHT22;6277;49.824;9.562;2024-03-02T10:04:33;11.40;72.60
12426;DHT22;6277;49.824;9.562;2024-03-02T10:07:15;11.50;72.50
12426;DHT22;6277;49.824;9.562;2024-03-02T10:09:42;11.50;72.50
12426;DHT22;6277;49.824;9.562;2024-03-02T10:12:09;11.50;72.30
12426;DHT22;6277;49.824;9.562;2024-03-02T10:14:34;11.50;72.30
12426;DHT22;6277;49.824;9.562;2024-03-02T10:17:08;11.50;72.40
12426;DHT22;6277;49.824;9.562;2024-03-02T10:19:34;11.50;72.50
12426;DHT22;6277;49.824;9.562;2024-03-02T10:22:04;11.50;73.00
12426;DHT22;6277;49.824;9.562;2024-03-02T10:24:49;11.50;72.30
12426;DHT22;6277;49.824;9.562;2024-03-02T10:27:15;11.60;72.40
12426;DHT22;6277;49.824;9.562;2024-03-02T10:29:41;11.60;72.60
12426;DHT22;6277;49.824;9.562;2024-03-02T10:32:10;11.60;72.30
12426;DHT22;6277;49.824;9.562;2024-03-02T10:34:37;11.60;72.20
12426;DHT22;6277;49.824;9.562;2024-03-02T10:37:03;11.60;72.10
12426;DHT22;6277;49.824;9.562;2024-03-02T10:39:28;11.60;72.20
12426;DHT22;6277;49.824;9.562;2024-03-02T10:41:56;11.60;72.20
12426;DHT22;6277;49.824;9.562;2024-03-02T10:44:22;11.60;72.10
12426;DHT22;6277;49.824;9.562;2024-03-02T10:46:49;11.60;72.10
12426;DHT22;6277;49.824;9.562;2024-03-02T10:49:16;11.60;72.10
12426;DHT22;6277;49.824;9.562;2024-03-02T10:51:43;11.60;72.10
12426;DHT22;6277;49.824;9.562;2024-03-02T10:54:08;11.70;72.10
12426;DHT22;6277;49.824;9.562;2024-03-02T10:56:39;11.70;72.10
12426;DHT22;6277;49.824;9.562;2024-03-02T10:59:20;11.70;72.30
12426;DHT22;6277;49.824;9.562;2024-03-02T11:01:48;11.80;72.30
12426;DHT22;6277;49.824;9.562;2024-03-02T11:04:18;11.80;72.20
12426;DHT22;6277;49.824;9.562;2024-03-02T11:06:51;11.90;72.30
12426;DHT22;6277;49.824;9.562;2024-03-02T11:09:21;12.00;72.20
12426;DHT22;6277;49.824;9.562;2024-03-02T11:14:41;12.10;72.20
12426;DHT22;6277;49.824;9.562;2024-03-02T11:17:10;12.20;72.30
12426;DHT22;6277;49.824;9.562;2024-03-02T11:19:38;12.30;72.30
12426;DHT22;6277;49.824;9.562;2024-03-02T11:22:05;12.40;72.30
12426;DHT22;6277;49.824;9.562;2024-03-02T11:24:31;12.40;72.40
12426;DHT22;6277;49.824;9.562;2024-03-02T11:27:01;12.50;72.40
12426;DHT22;6277;49.824;9.562;2024-03-02T11:32:22;12.70;72.10
12426;DHT22;6277;49.824;9.562;2024-03-02T11:34:51;12.90;72.00
12426;DHT22;6277;49.824;9.562;2024-03-02T11:37:18;13.00;72.10
12426;DHT22;6277;49.824;9.562;2024-03-02T11:39:50;13.10;72.00
12426;DHT22;6277;49.824;9.562;2024-03-02T11:42:16;13.20;72.50
12426;DHT22;6277;49.824;9.562;2024-03-02T11:44:44;13.30;71.80
12426;DHT22;6277;49.824;9.562;2024-03-02T11:47:12;13.40;71.60
12426;DHT22;6277;49.824;9.562;2024-03-02T11:49:50;13.50;71.70
12426;DHT22;6277;49.824;9.562;2024-03-02T11:52:17;13.60;71.50
12426;DHT22;6277;49.824;9.562;2024-03-02T11:54:45;13.70;71.60
12426;DHT22;6277;49.824;9.562;2024-03-02T11:57:18;13.80;71.60
12426;DHT22;6277;49.824;9.562;2024-03-02T11:59:44;13.90;71.40
12426;DHT22;6277;49.824;9.562;2024-03-02T12:02:20;14.00;71.30
12426;DHT22;6277;49.824;9.562;2024-03-02T12:04:47;14.10;70.90
12426;DHT22;6277;49.824;9.562;2024-03-02T12:07:19;14.20;71.00
12426;DHT22;6277;49.824;9.562;2024-03-02T12:09:47;14.30;70.90
12426;DHT22;6277;49.824;9.562;2024-03-02T12:12:12;14.30;70.80
12426;DHT22;6277;49.824;9.562;2024-03-02T12:14:50;14.40;70.70
12426;DHT22;6277;49.824;9.562;2024-03-02T12:17:16;14.50;70.30
12426;DHT22;6277;49.824;9.562;2024-03-02T12:19:41;14.60;70.70
12426;DHT22;6277;49.824;9.562;2024-03-02T12:22:07;14.70;70.50
12426;DHT22;6277;49.824;9.562;2024-03-02T12:24:32;14.80;70.40
12426;DHT22;6277;49.824;9.562;2024-03-02T12:26:58;14.90;70.30
12426;DHT22;6277;49.824;9.562;2024-03-02T12:29:24;14.90;70.10
12426;DHT22;6277;49.824;9.562;2024-03-02T12:31:51;15.00;69.70
12426;DHT22;6277;49.824;9.562;2024-03-02T12:34:21;15.00;69.50
12426;DHT22;6277;49.824;9.562;2024-03-02T12:36:48;15.10;69.50
12426;DHT22;6277;49.824;9.562;2024-03-02T12:39:18;15.20;69.50
12426;DHT22;6277;49.824;9.562;2024-03-02T12:41:46;15.20;69.00
12426;DHT22;6277;49.824;9.562;2024-03-02T12:44:11;15.40;69.30
12426;DHT22;6277;49.824;9.562;2024-03-02T12:46:37;15.40;69.30
12426;DHT22;6277;49.824;9.562;2024-03-02T12:49:13;15.50;69.10
12426;DHT22;6277;49.824;9.562;2024-03-02T12:51:40;15.60;68.30
12426;DHT22;6277;49.824;9.562;2024-03-02T12:54:08;15.70;68.60
12426;DHT22;6277;49.824;9.562;2024-03-02T12:56:33;15.80;68.40
12426;DHT22;6277;49.824;9.562;2024-03-02T12:59:00;15.90;68.40
12426;DHT22;6277;49.824;9.562;2024-03-02T13:01:26;15.90;68.30
12426;DHT22;6277;49.824;9.562;2024-03-02T13:03:53;16.00;68.20
12426;DHT22;6277;49.824;9.562;2024-03-02T13:06:21;16.20;68.00
12426;DHT22;6277;49.824;9.562;2024-03-02T13:08:46;16.30;68.10
12426;DHT22;6277;49.824;9.562;2024-03-02T13:11:13;16.40;67.90
12426;DHT22;6277;49.824;9.562;2024-03-02T13:13:42;16.40;67.60
12426;DHT22;6277;49.824;9.562;2024-03-02T13:16:09;16.50;67.10
12426;DHT22;6277;49.824;9.562;2024-03-02T13:18:35;16.60;67.30
12426;DHT22;6277;49.824;9.562;2024-03-02T13:21:01;16.70;67.40
12426;DHT22;6277;49.824;9.562;2024-03-02T13:23:26;16.80;67.30
12426;DHT22;6277;49.824;9.562;2024-03-02T13:25:52;16.90;66.90
12426;DHT22;6277;49.824;9.562;2024-03-02T13:28:18;17.00;66.60
12426;DHT22;6277;49.824;9.562;2024-03-02T13:30:43;17.10;66.60
12426;DHT22;6277;49.824;9.562;2024-03-02T13:33:09;17.20;66.40
12426;DHT22;6277;49.824;9.562;2024-03-02T13:35:34;17.30;66.20
12426;DHT22;6277;49.824;9.562;2024-03-02T13:38:00;17.30;66.00
12426;DHT22;6277;49.824;9.562;2024-03-02T13:40:25;17.40;65.80
12426;DHT22;6277;49.824;9.562;2024-03-02T13:42:51;17.50;65.70
12426;DHT22;6277;49.824;9.562;2024-03-02T13:45:19;17.60;65.40
12426;DHT22;6277;49.824;9.562;2024-03-02T13:47:44;17.70;65.30
12426;DHT22;6277;49.824;9.562;2024-03-02T13:50:10;17.70;64.80
12426;DHT22;6277;49.824;9.562;2024-03-02T13:52:35;17.80;64.60
12426;DHT22;6277;49.824;9.562;2024-03-02T13:55:01;17.80;64.30
12426;DHT22;6277;49.824;9.562;2024-03-02T13:57:27;17.90;64.30
12426;DHT22;6277;49.824;9.562;2024-03-02T13:59:53;17.90;64.10
12426;DHT22;6277;49.824;9.562;2024-03-02T14:02:20;18.00;63.70
12426;DHT22;6277;49.824;9.562;2024-03-02T14:04:45;18.00;63.50
12426;DHT22;6277;49.824;9.562;2024-03-02T14:07:13;18.00;63.20
12426;DHT22;6277;49.824;9.562;2024-03-02T14:09:39;18.00;63.00
12426;DHT22;6277;49.824;9.562;2024-03-02T14:12:05;18.00;62.90
12426;DHT22;6277;49.824;9.562;2024-03-02T14:14:31;18.10;62.60
12426;DHT22;6277;49.824;9.562;2024-03-02T14:16:57;18.10;62.60
12426;DHT22;6277;49.824;9.562;2024-03-02T14:19:26;18.10;62.60
12426;DHT22;6277;49.824;9.562;2024-03-02T14:21:51;18.20;62.60
12426;DHT22;6277;49.824;9.562;2024-03-02T14:24:17;18.20;62.60
12426;DHT22;6277;49.824;9.562;2024-03-02T14:26:42;18.30;62.40
12426;DHT22;6277;49.824;9.562;2024-03-02T14:29:08;18.40;62.60
12426;DHT22;6277;49.824;9.562;2024-03-02T14:31:33;18.40;62.60
12426;DHT22;6277;49.824;9.562;2024-03-02T14:33:59;18.60;62.50
12426;DHT22;6277;49.824;9.562;2024-03-02T14:36:26;18.70;62.60
12426;DHT22;6277;49.824;9.562;2024-03-02T14:38:53;18.80;62.50
12426;DHT22;6277;49.824;9.562;2024-03-02T14:41:19;19.00;62.50
12426;DHT22;6277;49.824;9.562;2024-03-02T14:43:44;19.10;62.20
12426;DHT22;6277;49.824;9.562;2024-03-02T14:46:10;19.20;61.80
12426;DHT22;6277;49.824;9.562;2024-03-02T14:48:36;19.40;61.60
12426;DHT22;6277;49.824;9.562;2024-03-02T14:51:02;19.50;61.10
12426;DHT22;6277;49.824;9.562;2024-03-02T14:53:28;19.70;60.70
12426;DHT22;6277;49.824;9.562;2024-03-02T14:55:54;19.80;60.70
12426;DHT22;6277;49.824;9.562;2024-03-02T14:58:19;19.90;60.50
12426;DHT22;6277;49.824;9.562;2024-03-02T15:00:45;20.00;60.00
12426;DHT22;6277;49.824;9.562;2024-03-02T15:03:10;20.10;59.60
12426;DHT22;6277;49.824;9.562;2024-03-02T15:05:37;20.20;59.20
12426;DHT22;6277;49.824;9.562;2024-03-02T15:08:03;20.30;58.70
12426;DHT22;6277;49.824;9.562;2024-03-02T15:10:30;20.30;58.30
12426;DHT22;6277;49.824;9.562;2024-03-02T15:12:56;20.30;58.20
12426;DHT22;6277;49.824;9.562;2024-03-02T15:15:22;20.40;58.20
12426;DHT22;6277;49.824;9.562;2024-03-02T15:17:48;20.40;58.00
12426;DHT22;6277;49.824;9.562;2024-03-02T15:20:13;20.40;57.60
12426;DHT22;6277;49.824;9.562;2024-03-02T15:22:39;20.50;57.50
12426;DHT22;6277;49.824;9.562;2024-03-02T15:25:05;20.50;57.30
12426;DHT22;6277;49.824;9.562;2024-03-02T15:27:31;20.50;57.20
12426;DHT22;6277;49.824;9.562;2024-03-02T15:29:56;20.50;56.80
12426;DHT22;6277;49.824;9.562;2024-03-02T15:32:23;20.40;56.70
12426;DHT22;6277;49.824;9.562;2024-03-02T15:34:49;20.40;56.70
12426;DHT22;6277;49.824;9.562;2024-03-02T15:37:15;20.40;56.90
12426;DHT22;6277;49.824;9.562;2024-03-02T15:39:40;20.40;56.50
12426;DHT22;6277;49.824;9.562;2024-03-02T15:42:06;20.30;56.90
12426;DHT22;6277;49.824;9.562;2024-03-02T15:44:31;20.30;56.20
12426;DHT22;6277;49.824;9.562;2024-03-02T15:46:58;20.20;56.10
12426;DHT22;6277;49.824;9.562;2024-03-02T15:49:24;20.20;56.10
12426;DHT22;6277;49.824;9.562;2024-03-02T15:51:49;20.10;56.00
12426;DHT22;6277;49.824;9.562;2024-03-02T15:54:15;20.00;56.10
12426;DHT22;6277;49.824;9.562;2024-03-02T15:56:41;19.90;56.20
12426;DHT22;6277;49.824;9.562;2024-03-02T15:59:06;19.80;56.20